Ana Sayfa
METAR-TAF:

METAR-TAF

Havaalanları :

Midland, Teksas, Amerika Birleşik Devletleri

Enlem: 32-02-11N, Boylam: 102-06-03W, yükseklik: 854 m

Güncel hava durumu gözlemi

Rapor saat 12:35 UTC de 29 dakika önce yapıldı.
Rüzgar güney/güneydoğudan 5 kt
Sıcaklık 5°C
Nem 100%
Basınç 1016 hPa
Görüş mesafesi: 1.2 km
200 ft yükseklikte çok bulutlu
Pus

METAR: KMDD 231235Z AUTO 15005KT 3/4SM BR OVC002 05/05 A3000 RMK AO2 T00510049

Saat: 07:04 (13:04 UTC)


TAF: eksik

4.000'den fazla havaalanı için hava durumu gözlemleri ve tahminleri (METAR ve TAF raporları).

Kullanılabilir istasyonlar harita üzerinde sarı ve kırmızı noktalarla gösterilir.

İstasyonun adını görmek için fareyi noktanın üzerinde gezdirin.

Sonrasında hava gözlem ve tahminlerini görmek için tıklayın.

Haritayı değiştirmek için: yaklaştırmak için siyah artı işaretli yeşil düğmeye ve uzaklaştırmak için de eksi işaretli düğmeye hızla tıklayın; bitişik haritalar için yeşil okları kullanın.


METAR-TAF: